עמוד ראשי
METAR-TAF:

METAR-TAF

שדות תעופה :

Ayacucho, פרו

קו רוחב: 13-08S, קו אורך: 074-13W, גובה: 2740מטר

תצפית מזג אוויר נוכחית

הדו"ח נערך לפני 2 שעות ו 19דקות, בשעה 23:00 UTC
רוח 2קשר עם כיוונים משתנים
טמפרטורת 22 צלסיוס
לחות 29%
לחץ 1024 hPa
ראות 10 קילומטר או יותר
ללא עננים שבסיסם נמוך מ 5000 רגל או קומולונימבוס

METAR: SPHO 202300Z VRB02KT CAVOK 22/03 Q1024 RMK BIRD HAZARD RWY 02/20 PP000

זמן: 20:19 (01:19 UTC)

תחזית

הדו"ח נערך לפני 8 שעות ו 19דקות, בשעה 17:00 UTC
תחזית בתוקף מ 20 ב 18 UTC עד 21 ב 18 UTC
רוח 5קשר מכיוון צפון-מזרח
ראות 10 קילומטר או יותר
מעט עננים בגובה 4000רגל
זמנית מ -
20 ב 19 UTC עד 20 ב 23 UTC
מעט עננים בגובה 4000רגל , קומולוס מיגדלי.
עננים בינוניים בגובה 8000רגל

TAF: SPHO 201700Z 2018/2118 05005KT 9999 FEW040 TX23/2019Z TN09/2111Z TEMPO 2019/2023 FEW040TCU BKN080

תצפיות ותחזיות מזג אוויר לגבי יותר מ- 4,000 שדות תעופה ברחבי העולם. דוחות METAR ו- TAF.

התחנות הזמינות מסומנות בנקודות צהובות ואדומות על גבי המפה.

העבר את העכבר לנקודה הצבעונית על מנת לראות את שם התחנה.

לאחר מכן, לחץ כדי לראות את תוכן ואת תחזיות מזג האוויר.

כדי לשנות את המפה: לחץ על הכפתורים הירוקים עם הפלוס השחור כדי להתקרב; על הכפתור הירוק עם המקף כדי להתרחק; או בחיצים הירוקים למפות סמוכות.


METAR-TAF: